sensor_id;sensor_type;location;lat;lon;timestamp;temperature;humidity
76172;DHT22;64929;51.178;4.138;2023-05-20T00:01:25;15.00;75.40
76172;DHT22;64929;51.178;4.138;2023-05-20T00:03:50;15.00;75.80
76172;DHT22;64929;51.178;4.138;2023-05-20T00:06:16;15.00;75.60
76172;DHT22;64929;51.178;4.138;2023-05-20T00:08:42;14.90;75.70
76172;DHT22;64929;51.178;4.138;2023-05-20T00:11:07;14.90;75.80
76172;DHT22;64929;51.178;4.138;2023-05-20T00:13:33;14.90;75.70
76172;DHT22;64929;51.178;4.138;2023-05-20T00:16:00;14.90;75.60
76172;DHT22;64929;51.178;4.138;2023-05-20T00:18:26;15.00;75.30
76172;DHT22;64929;51.178;4.138;2023-05-20T00:20:52;15.00;74.90
76172;DHT22;64929;51.178;4.138;2023-05-20T00:23:18;15.00;74.90
76172;DHT22;64929;51.178;4.138;2023-05-20T00:25:44;15.00;75.20
76172;DHT22;64929;51.178;4.138;2023-05-20T00:28:10;15.00;74.90
76172;DHT22;64929;51.178;4.138;2023-05-20T00:30:41;15.00;74.20
76172;DHT22;64929;51.178;4.138;2023-05-20T00:33:07;15.00;74.10
76172;DHT22;64929;51.178;4.138;2023-05-20T00:35:32;14.80;74.40
76172;DHT22;64929;51.178;4.138;2023-05-20T00:37:58;14.80;73.90
76172;DHT22;64929;51.178;4.138;2023-05-20T00:40:24;14.90;74.00
76172;DHT22;64929;51.178;4.138;2023-05-20T00:42:50;15.00;73.30
76172;DHT22;64929;51.178;4.138;2023-05-20T00:45:16;14.80;73.10
76172;DHT22;64929;51.178;4.138;2023-05-20T00:47:42;14.80;72.20
76172;DHT22;64929;51.178;4.138;2023-05-20T00:50:09;14.70;71.90
76172;DHT22;64929;51.178;4.138;2023-05-20T00:52:35;14.70;71.50
76172;DHT22;64929;51.178;4.138;2023-05-20T00:55:04;14.60;71.10
76172;DHT22;64929;51.178;4.138;2023-05-20T00:57:30;14.70;70.80
76172;DHT22;64929;51.178;4.138;2023-05-20T00:59:56;14.60;70.60
76172;DHT22;64929;51.178;4.138;2023-05-20T01:02:22;14.50;71.00
76172;DHT22;64929;51.178;4.138;2023-05-20T01:04:48;14.50;71.00
76172;DHT22;64929;51.178;4.138;2023-05-20T01:07:17;14.60;70.20
76172;DHT22;64929;51.178;4.138;2023-05-20T01:09:44;14.60;70.10
76172;DHT22;64929;51.178;4.138;2023-05-20T01:12:37;14.60;70.10
76172;DHT22;64929;51.178;4.138;2023-05-20T01:15:11;14.50;70.00
76172;DHT22;64929;51.178;4.138;2023-05-20T01:17:42;14.50;69.90
76172;DHT22;64929;51.178;4.138;2023-05-20T01:20:10;14.50;70.10
76172;DHT22;64929;51.178;4.138;2023-05-20T01:22:45;14.40;70.20
76172;DHT22;64929;51.178;4.138;2023-05-20T01:25:11;14.40;70.10
76172;DHT22;64929;51.178;4.138;2023-05-20T01:27:36;14.40;70.00
76172;DHT22;64929;51.178;4.138;2023-05-20T01:30:02;14.40;69.60
76172;DHT22;64929;51.178;4.138;2023-05-20T01:32:35;14.40;69.90
76172;DHT22;64929;51.178;4.138;2023-05-20T01:35:03;14.60;69.60
76172;DHT22;64929;51.178;4.138;2023-05-20T01:37:30;14.40;69.50
76172;DHT22;64929;51.178;4.138;2023-05-20T01:39:57;14.40;69.90
76172;DHT22;64929;51.178;4.138;2023-05-20T01:42:25;14.40;69.70
76172;DHT22;64929;51.178;4.138;2023-05-20T01:44:52;14.30;69.40
76172;DHT22;64929;51.178;4.138;2023-05-20T01:47:18;14.40;69.80
76172;DHT22;64929;51.178;4.138;2023-05-20T01:49:44;14.30;69.50
76172;DHT22;64929;51.178;4.138;2023-05-20T01:52:11;14.40;69.50
76172;DHT22;64929;51.178;4.138;2023-05-20T01:54:36;14.40;69.40
76172;DHT22;64929;51.178;4.138;2023-05-20T01:57:02;14.40;69.80
76172;DHT22;64929;51.178;4.138;2023-05-20T01:59:28;14.30;70.20
76172;DHT22;64929;51.178;4.138;2023-05-20T02:01:53;14.30;69.90
76172;DHT22;64929;51.178;4.138;2023-05-20T02:04:19;14.30;69.60
76172;DHT22;64929;51.178;4.138;2023-05-20T02:06:46;14.40;69.40
76172;DHT22;64929;51.178;4.138;2023-05-20T02:09:12;14.30;69.70
76172;DHT22;64929;51.178;4.138;2023-05-20T02:11:38;14.20;70.10
76172;DHT22;64929;51.178;4.138;2023-05-20T02:14:04;14.10;70.20
76172;DHT22;64929;51.178;4.138;2023-05-20T02:16:30;14.10;70.60
76172;DHT22;64929;51.178;4.138;2023-05-20T02:18:56;14.00;70.90
76172;DHT22;64929;51.178;4.138;2023-05-20T02:21:23;14.10;70.80
76172;DHT22;64929;51.178;4.138;2023-05-20T02:23:49;14.20;70.50
76172;DHT22;64929;51.178;4.138;2023-05-20T02:26:14;14.10;70.20
76172;DHT22;64929;51.178;4.138;2023-05-20T02:28:40;14.10;70.90
76172;DHT22;64929;51.178;4.138;2023-05-20T02:31:11;14.10;70.70
76172;DHT22;64929;51.178;4.138;2023-05-20T02:33:37;14.10;70.60
76172;DHT22;64929;51.178;4.138;2023-05-20T02:36:03;14.10;70.50
76172;DHT22;64929;51.178;4.138;2023-05-20T02:38:29;13.90;70.90
76172;DHT22;64929;51.178;4.138;2023-05-20T02:40:56;13.80;71.20
76172;DHT22;64929;51.178;4.138;2023-05-20T02:43:24;14.00;71.10
76172;DHT22;64929;51.178;4.138;2023-05-20T02:45:49;13.90;72.00
76172;DHT22;64929;51.178;4.138;2023-05-20T02:48:15;13.90;71.20
76172;DHT22;64929;51.178;4.138;2023-05-20T02:50:41;14.00;70.70
76172;DHT22;64929;51.178;4.138;2023-05-20T02:53:07;13.90;71.50
76172;DHT22;64929;51.178;4.138;2023-05-20T02:55:33;14.00;70.90
76172;DHT22;64929;51.178;4.138;2023-05-20T02:58:00;13.90;71.50
76172;DHT22;64929;51.178;4.138;2023-05-20T03:00:26;14.10;70.40
76172;DHT22;64929;51.178;4.138;2023-05-20T03:02:54;14.00;71.00
76172;DHT22;64929;51.178;4.138;2023-05-20T03:05:20;13.80;71.70
76172;DHT22;64929;51.178;4.138;2023-05-20T03:07:47;13.80;71.60
76172;DHT22;64929;51.178;4.138;2023-05-20T03:10:13;13.80;71.30
76172;DHT22;64929;51.178;4.138;2023-05-20T03:12:39;13.80;71.80
76172;DHT22;64929;51.178;4.138;2023-05-20T03:15:06;13.90;71.40
76172;DHT22;64929;51.178;4.138;2023-05-20T03:17:32;13.90;71.10
76172;DHT22;64929;51.178;4.138;2023-05-20T03:19:57;13.70;71.80
76172;DHT22;64929;51.178;4.138;2023-05-20T03:22:23;13.80;71.80
76172;DHT22;64929;51.178;4.138;2023-05-20T03:24:49;13.80;71.50
76172;DHT22;64929;51.178;4.138;2023-05-20T03:27:17;13.80;72.00
76172;DHT22;64929;51.178;4.138;2023-05-20T03:29:42;13.70;72.00
76172;DHT22;64929;51.178;4.138;2023-05-20T03:32:08;13.70;72.50
76172;DHT22;64929;51.178;4.138;2023-05-20T03:34:34;13.70;72.50
76172;DHT22;64929;51.178;4.138;2023-05-20T03:37:00;13.60;72.30
76172;DHT22;64929;51.178;4.138;2023-05-20T03:39:25;13.70;72.20
76172;DHT22;64929;51.178;4.138;2023-05-20T03:41:51;13.70;72.00
76172;DHT22;64929;51.178;4.138;2023-05-20T03:44:17;13.80;71.90
76172;DHT22;64929;51.178;4.138;2023-05-20T03:46:43;13.70;72.00
76172;DHT22;64929;51.178;4.138;2023-05-20T03:49:09;13.80;72.00
76172;DHT22;64929;51.178;4.138;2023-05-20T03:51:35;13.60;72.50
76172;DHT22;64929;51.178;4.138;2023-05-20T03:54:01;13.60;72.70
76172;DHT22;64929;51.178;4.138;2023-05-20T03:56:26;13.60;72.90
76172;DHT22;64929;51.178;4.138;2023-05-20T03:58:52;13.40;73.20
76172;DHT22;64929;51.178;4.138;2023-05-20T04:01:18;13.30;73.70
76172;DHT22;64929;51.178;4.138;2023-05-20T04:03:44;13.40;73.70
76172;DHT22;64929;51.178;4.138;2023-05-20T04:06:09;13.50;73.40
76172;DHT22;64929;51.178;4.138;2023-05-20T04:08:35;13.50;73.20
76172;DHT22;64929;51.178;4.138;2023-05-20T04:11:01;13.50;73.30
76172;DHT22;64929;51.178;4.138;2023-05-20T04:13:27;13.50;73.70
76172;DHT22;64929;51.178;4.138;2023-05-20T04:15:53;13.40;73.40
76172;DHT22;64929;51.178;4.138;2023-05-20T04:18:19;13.60;73.00
76172;DHT22;64929;51.178;4.138;2023-05-20T04:20:45;13.70;72.70
76172;DHT22;64929;51.178;4.138;2023-05-20T04:23:11;13.60;72.90
76172;DHT22;64929;51.178;4.138;2023-05-20T04:25:37;13.30;73.80
76172;DHT22;64929;51.178;4.138;2023-05-20T04:28:03;13.30;74.50
76172;DHT22;64929;51.178;4.138;2023-05-20T04:30:29;13.40;73.90
76172;DHT22;64929;51.178;4.138;2023-05-20T04:32:57;13.40;73.60
76172;DHT22;64929;51.178;4.138;2023-05-20T04:35:23;13.50;74.00
76172;DHT22;64929;51.178;4.138;2023-05-20T04:37:50;13.40;74.00
76172;DHT22;64929;51.178;4.138;2023-05-20T04:40:18;13.30;74.30
76172;DHT22;64929;51.178;4.138;2023-05-20T04:42:45;13.40;74.40
76172;DHT22;64929;51.178;4.138;2023-05-20T04:45:11;13.40;74.00
76172;DHT22;64929;51.178;4.138;2023-05-20T04:47:38;13.40;74.40
76172;DHT22;64929;51.178;4.138;2023-05-20T04:50:05;13.40;74.50
76172;DHT22;64929;51.178;4.138;2023-05-20T04:52:33;13.40;74.80
76172;DHT22;64929;51.178;4.138;2023-05-20T04:54:58;13.40;74.30
76172;DHT22;64929;51.178;4.138;2023-05-20T04:57:26;13.50;74.20
76172;DHT22;64929;51.178;4.138;2023-05-20T04:59:52;13.30;75.10
76172;DHT22;64929;51.178;4.138;2023-05-20T05:02:17;13.30;74.90
76172;DHT22;64929;51.178;4.138;2023-05-20T05:04:43;13.30;75.30
76172;DHT22;64929;51.178;4.138;2023-05-20T05:07:08;13.50;74.70
76172;DHT22;64929;51.178;4.138;2023-05-20T05:09:35;13.50;74.60
76172;DHT22;64929;51.178;4.138;2023-05-20T05:12:01;13.50;74.60
76172;DHT22;64929;51.178;4.138;2023-05-20T05:14:27;13.60;74.60
76172;DHT22;64929;51.178;4.138;2023-05-20T05:16:52;13.70;74.30
76172;DHT22;64929;51.178;4.138;2023-05-20T05:19:18;13.80;74.00
76172;DHT22;64929;51.178;4.138;2023-05-20T05:21:44;13.90;74.20
76172;DHT22;64929;51.178;4.138;2023-05-20T05:24:09;14.00;73.40
76172;DHT22;64929;51.178;4.138;2023-05-20T05:26:35;14.10;72.90
76172;DHT22;64929;51.178;4.138;2023-05-20T05:29:01;14.20;72.70
76172;DHT22;64929;51.178;4.138;2023-05-20T05:31:26;14.10;73.30
76172;DHT22;64929;51.178;4.138;2023-05-20T05:33:52;14.10;73.20
76172;DHT22;64929;51.178;4.138;2023-05-20T05:36:18;14.10;73.30
76172;DHT22;64929;51.178;4.138;2023-05-20T05:38:43;13.90;73.60
76172;DHT22;64929;51.178;4.138;2023-05-20T05:41:09;14.10;73.60
76172;DHT22;64929;51.178;4.138;2023-05-20T05:43:35;14.10;73.60
76172;DHT22;64929;51.178;4.138;2023-05-20T05:46:00;14.20;73.00
76172;DHT22;64929;51.178;4.138;2023-05-20T05:48:26;14.10;72.90
76172;DHT22;64929;51.178;4.138;2023-05-20T05:50:52;14.10;73.40
76172;DHT22;64929;51.178;4.138;2023-05-20T05:53:18;14.10;73.90
76172;DHT22;64929;51.178;4.138;2023-05-20T05:55:47;14.20;73.50
76172;DHT22;64929;51.178;4.138;2023-05-20T05:58:12;14.30;73.00
76172;DHT22;64929;51.178;4.138;2023-05-20T06:00:38;14.30;72.70
76172;DHT22;64929;51.178;4.138;2023-05-20T06:03:04;14.40;72.50
76172;DHT22;64929;51.178;4.138;2023-05-20T06:05:30;14.40;73.10
76172;DHT22;64929;51.178;4.138;2023-05-20T06:07:56;14.40;72.90
76172;DHT22;64929;51.178;4.138;2023-05-20T06:10:22;14.20;73.50
76172;DHT22;64929;51.178;4.138;2023-05-20T06:12:48;14.30;73.10
76172;DHT22;64929;51.178;4.138;2023-05-20T06:15:14;14.50;73.20
76172;DHT22;64929;51.178;4.138;2023-05-20T06:17:39;14.60;74.00
76172;DHT22;64929;51.178;4.138;2023-05-20T06:20:05;14.60;72.50
76172;DHT22;64929;51.178;4.138;2023-05-20T06:22:32;14.70;72.20
76172;DHT22;64929;51.178;4.138;2023-05-20T06:24:57;14.60;72.90
76172;DHT22;64929;51.178;4.138;2023-05-20T06:27:26;14.60;72.80
76172;DHT22;64929;51.178;4.138;2023-05-20T06:29:53;14.80;72.30
76172;DHT22;64929;51.178;4.138;2023-05-20T06:32:18;15.00;72.70
76172;DHT22;64929;51.178;4.138;2023-05-20T06:34:44;15.10;72.00
76172;DHT22;64929;51.178;4.138;2023-05-20T06:37:10;15.10;71.70
76172;DHT22;64929;51.178;4.138;2023-05-20T06:39:36;15.20;71.70
76172;DHT22;64929;51.178;4.138;2023-05-20T06:42:01;15.40;70.60
76172;DHT22;64929;51.178;4.138;2023-05-20T06:44:27;15.40;71.50
76172;DHT22;64929;51.178;4.138;2023-05-20T06:46:53;15.30;71.50
76172;DHT22;64929;51.178;4.138;2023-05-20T06:49:19;15.50;70.70
76172;DHT22;64929;51.178;4.138;2023-05-20T06:51:45;15.50;70.30
76172;DHT22;64929;51.178;4.138;2023-05-20T06:54:10;15.40;70.20
76172;DHT22;64929;51.178;4.138;2023-05-20T06:56:36;15.40;70.50
76172;DHT22;64929;51.178;4.138;2023-05-20T06:59:02;15.40;71.10
76172;DHT22;64929;51.178;4.138;2023-05-20T07:01:27;15.50;70.40
76172;DHT22;64929;51.178;4.138;2023-05-20T07:03:53;15.40;70.70
76172;DHT22;64929;51.178;4.138;2023-05-20T07:06:19;15.40;70.40
76172;DHT22;64929;51.178;4.138;2023-05-20T07:08:44;15.50;70.40
76172;DHT22;64929;51.178;4.138;2023-05-20T07:11:10;15.60;70.30
76172;DHT22;64929;51.178;4.138;2023-05-20T07:13:36;15.60;70.50
76172;DHT22;64929;51.178;4.138;2023-05-20T07:16:02;15.60;70.50
76172;DHT22;64929;51.178;4.138;2023-05-20T07:18:28;15.50;70.20
76172;DHT22;64929;51.178;4.138;2023-05-20T07:20:54;15.70;70.90
76172;DHT22;64929;51.178;4.138;2023-05-20T07:23:22;15.80;71.40
76172;DHT22;64929;51.178;4.138;2023-05-20T07:25:47;16.00;69.60
76172;DHT22;64929;51.178;4.138;2023-05-20T07:28:15;16.10;69.80
76172;DHT22;64929;51.178;4.138;2023-05-20T07:30:42;16.20;69.20
76172;DHT22;64929;51.178;4.138;2023-05-20T07:33:15;16.30;69.20
76172;DHT22;64929;51.178;4.138;2023-05-20T07:35:41;16.40;68.00
76172;DHT22;64929;51.178;4.138;2023-05-20T07:38:07;16.50;67.80
76172;DHT22;64929;51.178;4.138;2023-05-20T07:40:33;16.70;67.70
76172;DHT22;64929;51.178;4.138;2023-05-20T07:42:58;16.60;67.30
76172;DHT22;64929;51.178;4.138;2023-05-20T07:45:24;16.70;67.50
76172;DHT22;64929;51.178;4.138;2023-05-20T07:47:50;16.80;67.80
76172;DHT22;64929;51.178;4.138;2023-05-20T07:50:16;17.00;66.70
76172;DHT22;64929;51.178;4.138;2023-05-20T07:52:41;17.00;65.90
76172;DHT22;64929;51.178;4.138;2023-05-20T07:55:07;17.10;64.60
76172;DHT22;64929;51.178;4.138;2023-05-20T07:57:33;17.00;65.80
76172;DHT22;64929;51.178;4.138;2023-05-20T07:59:58;17.10;65.50
76172;DHT22;64929;51.178;4.138;2023-05-20T08:02:24;17.00;65.00
76172;DHT22;64929;51.178;4.138;2023-05-20T08:04:50;17.10;65.30
76172;DHT22;64929;51.178;4.138;2023-05-20T08:07:15;17.20;64.60
76172;DHT22;64929;51.178;4.138;2023-05-20T08:09:41;17.30;65.10
76172;DHT22;64929;51.178;4.138;2023-05-20T08:12:07;17.30;64.60
76172;DHT22;64929;51.178;4.138;2023-05-20T08:14:33;17.30;64.60
76172;DHT22;64929;51.178;4.138;2023-05-20T08:16:59;17.40;64.80
76172;DHT22;64929;51.178;4.138;2023-05-20T08:19:24;17.40;63.70
76172;DHT22;64929;51.178;4.138;2023-05-20T08:21:50;17.60;64.50
76172;DHT22;64929;51.178;4.138;2023-05-20T08:24:16;17.80;63.40
76172;DHT22;64929;51.178;4.138;2023-05-20T08:26:42;17.70;62.80
76172;DHT22;64929;51.178;4.138;2023-05-20T08:29:07;17.70;62.70
76172;DHT22;64929;51.178;4.138;2023-05-20T08:31:34;17.80;62.40
76172;DHT22;64929;51.178;4.138;2023-05-20T08:34:00;17.90;62.50
76172;DHT22;64929;51.178;4.138;2023-05-20T08:36:26;18.00;61.50
76172;DHT22;64929;51.178;4.138;2023-05-20T08:38:51;18.00;61.80
76172;DHT22;64929;51.178;4.138;2023-05-20T08:41:17;18.00;62.00
76172;DHT22;64929;51.178;4.138;2023-05-20T08:43:43;18.00;62.10
76172;DHT22;64929;51.178;4.138;2023-05-20T08:46:09;18.00;62.70
76172;DHT22;64929;51.178;4.138;2023-05-20T08:48:36;18.10;61.70
76172;DHT22;64929;51.178;4.138;2023-05-20T08:51:02;18.10;61.50
76172;DHT22;64929;51.178;4.138;2023-05-20T08:53:28;18.20;60.50
76172;DHT22;64929;51.178;4.138;2023-05-20T08:55:57;18.20;59.90
76172;DHT22;64929;51.178;4.138;2023-05-20T08:58:24;18.30;60.60
76172;DHT22;64929;51.178;4.138;2023-05-20T09:00:51;18.40;60.00
76172;DHT22;64929;51.178;4.138;2023-05-20T09:03:17;18.40;59.50
76172;DHT22;64929;51.178;4.138;2023-05-20T09:05:45;18.40;60.60
76172;DHT22;64929;51.178;4.138;2023-05-20T09:08:11;18.50;59.90
76172;DHT22;64929;51.178;4.138;2023-05-20T09:10:38;18.60;59.00
76172;DHT22;64929;51.178;4.138;2023-05-20T09:13:05;18.40;60.00
76172;DHT22;64929;51.178;4.138;2023-05-20T09:15:32;18.40;59.90
76172;DHT22;64929;51.178;4.138;2023-05-20T09:18:06;18.40;60.00
76172;DHT22;64929;51.178;4.138;2023-05-20T09:20:36;18.70;59.90
76172;DHT22;64929;51.178;4.138;2023-05-20T09:23:04;18.60;59.60
76172;DHT22;64929;51.178;4.138;2023-05-20T09:25:31;18.70;60.70
76172;DHT22;64929;51.178;4.138;2023-05-20T09:27:57;18.80;58.40
76172;DHT22;64929;51.178;4.138;2023-05-20T09:30:23;18.80;59.00
76172;DHT22;64929;51.178;4.138;2023-05-20T09:32:56;18.80;58.80
76172;DHT22;64929;51.178;4.138;2023-05-20T09:35:22;18.90;58.20
76172;DHT22;64929;51.178;4.138;2023-05-20T09:37:51;19.00;57.40
76172;DHT22;64929;51.178;4.138;2023-05-20T09:40:27;19.10;59.00
76172;DHT22;64929;51.178;4.138;2023-05-20T09:45:27;19.20;56.50
76172;DHT22;64929;51.178;4.138;2023-05-20T09:47:54;19.00;56.00
76172;DHT22;64929;51.178;4.138;2023-05-20T09:50:21;19.00;56.40
76172;DHT22;64929;51.178;4.138;2023-05-20T09:52:48;19.00;54.80
76172;DHT22;64929;51.178;4.138;2023-05-20T09:55:15;19.00;55.70
76172;DHT22;64929;51.178;4.138;2023-05-20T09:57:42;19.00;55.80
76172;DHT22;64929;51.178;4.138;2023-05-20T10:00:08;19.00;55.80
76172;DHT22;64929;51.178;4.138;2023-05-20T10:02:36;19.10;55.60
76172;DHT22;64929;51.178;4.138;2023-05-20T10:05:06;19.20;55.50
76172;DHT22;64929;51.178;4.138;2023-05-20T10:19:30;19.20;56.60
76172;DHT22;64929;51.178;4.138;2023-05-20T10:22:04;19.40;54.50
76172;DHT22;64929;51.178;4.138;2023-05-20T10:24:33;19.30;55.80
76172;DHT22;64929;51.178;4.138;2023-05-20T10:27:01;19.30;55.10
76172;DHT22;64929;51.178;4.138;2023-05-20T10:29:27;19.60;54.90
76172;DHT22;64929;51.178;4.138;2023-05-20T10:31:53;19.60;54.40
76172;DHT22;64929;51.178;4.138;2023-05-20T10:34:21;19.80;55.80
76172;DHT22;64929;51.178;4.138;2023-05-20T10:39:24;19.90;53.90
76172;DHT22;64929;51.178;4.138;2023-05-20T10:41:50;19.80;53.30
76172;DHT22;64929;51.178;4.138;2023-05-20T10:44:16;19.90;54.10
76172;DHT22;64929;51.178;4.138;2023-05-20T10:46:42;19.90;53.10
76172;DHT22;64929;51.178;4.138;2023-05-20T10:49:17;19.80;52.90
76172;DHT22;64929;51.178;4.138;2023-05-20T10:51:46;19.80;54.00
76172;DHT22;64929;51.178;4.138;2023-05-20T10:54:13;19.90;56.00
76172;DHT22;64929;51.178;4.138;2023-05-20T10:56:39;20.00;52.20
76172;DHT22;64929;51.178;4.138;2023-05-20T10:59:14;20.10;53.70
76172;DHT22;64929;51.178;4.138;2023-05-20T11:01:41;19.90;52.90
76172;DHT22;64929;51.178;4.138;2023-05-20T11:04:07;19.90;52.70
76172;DHT22;64929;51.178;4.138;2023-05-20T11:06:33;20.00;52.60
76172;DHT22;64929;51.178;4.138;2023-05-20T11:09:05;20.00;52.50
76172;DHT22;64929;51.178;4.138;2023-05-20T11:11:31;19.90;52.40
76172;DHT22;64929;51.178;4.138;2023-05-20T11:13:57;20.00;53.40
76172;DHT22;64929;51.178;4.138;2023-05-20T11:16:25;20.00;52.60
76172;DHT22;64929;51.178;4.138;2023-05-20T11:18:50;20.10;53.50
76172;DHT22;64929;51.178;4.138;2023-05-20T11:21:17;20.40;52.40
76172;DHT22;64929;51.178;4.138;2023-05-20T11:23:44;20.30;51.30
76172;DHT22;64929;51.178;4.138;2023-05-20T11:26:10;20.40;51.30
76172;DHT22;64929;51.178;4.138;2023-05-20T11:28:36;20.40;51.00
76172;DHT22;64929;51.178;4.138;2023-05-20T11:31:02;20.30;50.10
76172;DHT22;64929;51.178;4.138;2023-05-20T11:33:28;20.50;52.10
76172;DHT22;64929;51.178;4.138;2023-05-20T11:35:55;20.40;51.00
76172;DHT22;64929;51.178;4.138;2023-05-20T11:38:22;20.30;51.80
76172;DHT22;64929;51.178;4.138;2023-05-20T11:40:54;20.60;52.70
76172;DHT22;64929;51.178;4.138;2023-05-20T11:43:21;20.80;51.40
76172;DHT22;64929;51.178;4.138;2023-05-20T11:45:53;20.60;51.90
76172;DHT22;64929;51.178;4.138;2023-05-20T11:48:20;20.60;52.40
76172;DHT22;64929;51.178;4.138;2023-05-20T11:50:47;20.70;51.90
76172;DHT22;64929;51.178;4.138;2023-05-20T11:53:17;20.80;51.70
76172;DHT22;64929;51.178;4.138;2023-05-20T11:55:57;20.90;50.50
76172;DHT22;64929;51.178;4.138;2023-05-20T11:58:24;20.70;50.40
76172;DHT22;64929;51.178;4.138;2023-05-20T12:00:51;20.70;52.40
76172;DHT22;64929;51.178;4.138;2023-05-20T12:03:16;20.60;50.60
76172;DHT22;64929;51.178;4.138;2023-05-20T12:05:43;20.50;51.50
76172;DHT22;64929;51.178;4.138;2023-05-20T12:08:09;20.70;52.80
76172;DHT22;64929;51.178;4.138;2023-05-20T12:10:34;20.90;52.90
76172;DHT22;64929;51.178;4.138;2023-05-20T12:13:02;21.00;53.60
76172;DHT22;64929;51.178;4.138;2023-05-20T12:15:28;20.90;51.70
76172;DHT22;64929;51.178;4.138;2023-05-20T12:17:54;21.10;52.10
76172;DHT22;64929;51.178;4.138;2023-05-20T12:20:22;21.10;52.40
76172;DHT22;64929;51.178;4.138;2023-05-20T12:22:48;21.10;50.60
76172;DHT22;64929;51.178;4.138;2023-05-20T12:25:18;21.40;50.80
76172;DHT22;64929;51.178;4.138;2023-05-20T12:27:45;21.60;50.20
76172;DHT22;64929;51.178;4.138;2023-05-20T12:30:15;21.50;51.00
76172;DHT22;64929;51.178;4.138;2023-05-20T12:32:42;21.50;52.10
76172;DHT22;64929;51.178;4.138;2023-05-20T12:35:08;21.70;51.60
76172;DHT22;64929;51.178;4.138;2023-05-20T12:37:35;21.80;50.10
76172;DHT22;64929;51.178;4.138;2023-05-20T12:40:01;21.80;50.40
76172;DHT22;64929;51.178;4.138;2023-05-20T12:42:36;21.50;50.20
76172;DHT22;64929;51.178;4.138;2023-05-20T12:45:02;21.50;52.10
76172;DHT22;64929;51.178;4.138;2023-05-20T12:47:28;21.50;51.10
76172;DHT22;64929;51.178;4.138;2023-05-20T12:49:54;21.50;49.40
76172;DHT22;64929;51.178;4.138;2023-05-20T12:52:20;21.50;50.30
76172;DHT22;64929;51.178;4.138;2023-05-20T12:54:46;21.40;49.80
76172;DHT22;64929;51.178;4.138;2023-05-20T12:57:11;21.60;53.30
76172;DHT22;64929;51.178;4.138;2023-05-20T12:59:37;21.90;49.80
76172;DHT22;64929;51.178;4.138;2023-05-20T13:02:03;22.10;50.50
76172;DHT22;64929;51.178;4.138;2023-05-20T13:04:28;22.30;51.40
76172;DHT22;64929;51.178;4.138;2023-05-20T13:06:54;22.40;49.50
76172;DHT22;64929;51.178;4.138;2023-05-20T13:09:20;22.30;49.50
76172;DHT22;64929;51.178;4.138;2023-05-20T13:11:46;22.40;49.40
76172;DHT22;64929;51.178;4.138;2023-05-20T13:14:12;22.40;49.80
76172;DHT22;64929;51.178;4.138;2023-05-20T13:16:37;22.20;49.60
76172;DHT22;64929;51.178;4.138;2023-05-20T13:19:03;22.00;50.00
76172;DHT22;64929;51.178;4.138;2023-05-20T13:21:29;21.90;50.30
76172;DHT22;64929;51.178;4.138;2023-05-20T13:23:56;21.80;49.90
76172;DHT22;64929;51.178;4.138;2023-05-20T13:26:21;21.80;49.90
76172;DHT22;64929;51.178;4.138;2023-05-20T13:28:48;22.00;49.70
76172;DHT22;64929;51.178;4.138;2023-05-20T13:31:14;22.50;50.10
76172;DHT22;64929;51.178;4.138;2023-05-20T13:33:39;22.60;48.90
76172;DHT22;64929;51.178;4.138;2023-05-20T13:36:05;22.90;49.20
76172;DHT22;64929;51.178;4.138;2023-05-20T13:38:31;23.20;49.60
76172;DHT22;64929;51.178;4.138;2023-05-20T13:40:57;23.10;48.30
76172;DHT22;64929;51.178;4.138;2023-05-20T13:43:24;22.80;48.00
76172;DHT22;64929;51.178;4.138;2023-05-20T13:45:53;23.20;48.80
76172;DHT22;64929;51.178;4.138;2023-05-20T13:48:19;23.70;46.50
76172;DHT22;64929;51.178;4.138;2023-05-20T13:50:45;24.00;46.50
76172;DHT22;64929;51.178;4.138;2023-05-20T13:53:11;23.80;47.00
76172;DHT22;64929;51.178;4.138;2023-05-20T13:55:39;24.00;46.50
76172;DHT22;64929;51.178;4.138;2023-05-20T13:58:05;24.10;46.00
76172;DHT22;64929;51.178;4.138;2023-05-20T14:00:37;24.50;44.90
76172;DHT22;64929;51.178;4.138;2023-05-20T14:03:03;24.80;45.30
76172;DHT22;64929;51.178;4.138;2023-05-20T14:05:30;24.30;45.60
76172;DHT22;64929;51.178;4.138;2023-05-20T14:07:57;24.20;45.60
76172;DHT22;64929;51.178;4.138;2023-05-20T14:10:23;24.00;45.90
76172;DHT22;64929;51.178;4.138;2023-05-20T14:12:48;23.60;46.60
76172;DHT22;64929;51.178;4.138;2023-05-20T14:15:14;22.90;47.80
76172;DHT22;64929;51.178;4.138;2023-05-20T14:17:40;22.90;47.60
76172;DHT22;64929;51.178;4.138;2023-05-20T14:20:07;22.90;49.30
76172;DHT22;64929;51.178;4.138;2023-05-20T14:22:33;23.30;46.90
76172;DHT22;64929;51.178;4.138;2023-05-20T14:24:58;23.90;45.90
76172;DHT22;64929;51.178;4.138;2023-05-20T14:27:24;24.60;45.30
76172;DHT22;64929;51.178;4.138;2023-05-20T14:29:50;25.30;44.90
76172;DHT22;64929;51.178;4.138;2023-05-20T14:32:16;25.70;43.70
76172;DHT22;64929;51.178;4.138;2023-05-20T14:34:41;25.70;42.60
76172;DHT22;64929;51.178;4.138;2023-05-20T14:37:07;24.80;43.70
76172;DHT22;64929;51.178;4.138;2023-05-20T14:39:38;25.00;45.20
76172;DHT22;64929;51.178;4.138;2023-05-20T14:42:04;25.60;44.30
76172;DHT22;64929;51.178;4.138;2023-05-20T14:44:30;25.80;42.40
76172;DHT22;64929;51.178;4.138;2023-05-20T14:46:56;25.60;43.30
76172;DHT22;64929;51.178;4.138;2023-05-20T14:49:22;25.70;42.90
76172;DHT22;64929;51.178;4.138;2023-05-20T14:51:48;26.60;42.00
76172;DHT22;64929;51.178;4.138;2023-05-20T14:54:14;26.50;42.90
76172;DHT22;64929;51.178;4.138;2023-05-20T14:56:41;26.20;41.90
76172;DHT22;64929;51.178;4.138;2023-05-20T14:59:06;25.20;43.60
76172;DHT22;64929;51.178;4.138;2023-05-20T15:01:33;24.40;45.00
76172;DHT22;64929;51.178;4.138;2023-05-20T15:03:58;23.90;46.10
76172;DHT22;64929;51.178;4.138;2023-05-20T15:06:25;23.40;46.40
76172;DHT22;64929;51.178;4.138;2023-05-20T15:08:51;22.80;48.20
76172;DHT22;64929;51.178;4.138;2023-05-20T15:11:17;22.50;49.40
76172;DHT22;64929;51.178;4.138;2023-05-20T15:13:43;22.50;49.50
76172;DHT22;64929;51.178;4.138;2023-05-20T15:16:11;22.50;48.80
76172;DHT22;64929;51.178;4.138;2023-05-20T15:18:37;22.50;48.70
76172;DHT22;64929;51.178;4.138;2023-05-20T15:21:02;22.50;48.90
76172;DHT22;64929;51.178;4.138;2023-05-20T15:23:28;22.20;50.50
76172;DHT22;64929;51.178;4.138;2023-05-20T15:25:54;22.50;50.40
76172;DHT22;64929;51.178;4.138;2023-05-20T15:28:22;22.50;50.00
76172;DHT22;64929;51.178;4.138;2023-05-20T15:30:52;22.50;49.00
76172;DHT22;64929;51.178;4.138;2023-05-20T15:33:19;22.50;49.00
76172;DHT22;64929;51.178;4.138;2023-05-20T15:35:45;22.60;49.40
76172;DHT22;64929;51.178;4.138;2023-05-20T15:38:12;22.50;48.70
76172;DHT22;64929;51.178;4.138;2023-05-20T15:40:37;22.50;49.00
76172;DHT22;64929;51.178;4.138;2023-05-20T15:43:04;22.30;49.10